Time;durP1;ratioP1;P1;durP2;ratioP2;P2;SDS_P1;SDS_P2;PMS_P1;PMS_P2;Temp;Humidity;BMP_temperature;BMP_pressure;BME280_temperature;BME280_humidity;BME280_pressure;Samples;Min_cycle;Max_cycle;Signal;HPM_P1;HPM_P2
2022/09/09 00:00:24;;;;;;;17.00;13.75;;;14.60;99.90;;;;;;5042288;28;20069;-65
2022/09/09 00:02:56;;;;;;;16.13;13.48;;;14.50;99.90;;;;;;5043856;28;20041;-65
2022/09/09 00:05:36;;;;;;;15.88;13.48;;;14.50;99.90;;;;;;5041467;28;20048;-65
2022/09/09 00:08:03;;;;;;;18.67;12.90;;;14.50;99.90;;;;;;5032014;28;20516;-65
2022/09/09 00:10:31;;;;;;;14.27;12.13;;;14.50;99.90;;;;;;5022282;28;20483;-66
2022/09/09 00:13:20;;;;;;;15.52;12.20;;;14.60;99.90;;;;;;5022929;28;20088;-65
2022/09/09 00:15:46;;;;;;;15.95;11.88;;;14.60;99.90;;;;;;5023234;28;20052;-66
2022/09/09 00:18:17;;;;;;;13.75;11.43;;;14.60;99.90;;;;;;5023282;28;20053;-65
2022/09/09 00:21:00;;;;;;;18.95;13.10;;;14.50;99.90;;;;;;5023042;28;20041;-65
2022/09/09 00:23:32;;;;;;;14.68;12.25;;;14.50;99.90;;;;;;5023066;28;20077;-65
2022/09/09 00:26:08;;;;;;;16.45;12.20;;;14.50;99.90;;;;;;5023179;28;20404;-66
2022/09/09 00:28:41;;;;;;;16.63;13.05;;;13.90;99.90;;;;;;5022266;28;20285;-67
2022/09/09 00:31:15;;;;;;;16.90;12.75;;;14.40;99.90;;;;;;5022843;28;20690;-66
2022/09/09 00:33:43;;;;;;;16.75;12.77;;;14.40;99.90;;;;;;5023037;28;20073;-66
2022/09/09 00:36:18;;;;;;;16.60;13.30;;;14.30;99.90;;;;;;5023232;28;20138;-66
2022/09/09 00:38:56;;;;;;;14.93;13.27;;;14.30;99.90;;;;;;5023290;28;20046;-65
2022/09/09 00:41:32;;;;;;;16.83;13.45;;;14.30;99.90;;;;;;5026986;28;20045;-65
2022/09/09 00:44:17;;;;;;;16.38;13.63;;;14.30;99.90;;;;;;5026040;28;20049;-65
2022/09/09 00:47:03;;;;;;;17.48;13.95;;;14.30;99.90;;;;;;5026867;28;20442;-65
2022/09/09 00:49:40;;;;;;;17.02;14.57;;;14.30;99.90;;;;;;5026932;28;20095;-65
2022/09/09 00:52:31;;;;;;;16.23;14.00;;;14.30;99.90;;;;;;5026748;28;20041;-66
2022/09/09 00:55:18;;;;;;;20.75;13.90;;;14.20;99.90;;;;;;5025992;28;20054;-65
2022/09/09 00:57:46;;;;;;;17.88;14.10;;;14.20;99.90;;;;;;5026316;28;20052;-66
2022/09/09 01:00:26;;;;;;;18.25;14.38;;;14.20;99.90;;;;;;5026472;28;20077;-65
2022/09/09 01:03:24;;;;;;;19.67;14.75;;;14.20;99.90;;;;;;5026622;28;20167;-66
2022/09/09 01:06:09;;;;;;;17.52;14.50;;;14.20;99.90;;;;;;5046204;22;20467;-65
2022/09/09 01:08:52;;;;;;;17.65;14.10;;;14.20;99.90;;;;;;5044639;28;20053;-65
2022/09/09 01:11:31;;;;;;;17.85;13.85;;;14.10;99.90;;;;;;5046575;28;20048;-66
2022/09/09 01:14:34;;;;;;;22.15;15.13;;;14.10;99.90;;;;;;5045827;28;20037;-65
2022/09/09 01:17:05;;;;;;;19.15;14.70;;;14.10;99.90;;;;;;5046472;28;20098;-65
2022/09/09 01:19:54;;;;;;;16.08;13.18;;;14.00;99.90;;;;;;5046600;28;20045;-65
2022/09/09 01:22:35;;;;;;;19.52;13.95;;;14.00;99.90;;;;;;5041378;28;20106;-66
2022/09/09 01:25:19;;;;;;;18.20;14.75;;;14.00;99.90;;;;;;5046599;28;20116;-65
2022/09/09 01:27:48;;;;;;;20.30;14.48;;;14.00;99.90;;;;;;5046403;28;20067;-65
2022/09/09 01:30:16;;;;;;;20.58;15.45;;;13.90;99.90;;;;;;5044662;28;20505;-66
2022/09/09 01:32:48;;;;;;;20.30;15.57;;;13.90;99.90;;;;;;5045597;28;20044;-65
2022/09/09 01:35:32;;;;;;;18.40;15.93;;;13.90;99.90;;;;;;5046232;28;20037;-65
2022/09/09 01:37:58;;;;;;;21.63;16.13;;;13.90;99.90;;;;;;5045596;28;20096;-65
2022/09/09 01:40:26;;;;;;;19.45;16.20;;;13.90;99.90;;;;;;5044965;28;20083;-65
2022/09/09 01:42:52;;;;;;;27.38;16.50;;;13.80;99.90;;;;;;5028614;28;20048;-65
2022/09/09 01:45:18;;;;;;;22.40;15.82;;;13.80;99.90;;;;;;5045410;28;20049;-65
2022/09/09 01:47:45;;;;;;;19.75;15.85;;;14.10;99.90;;;;;;5045946;28;20083;-65
2022/09/09 01:50:14;;;;;;;16.60;14.55;;;13.80;99.90;;;;;;5045582;28;20084;-66
2022/09/09 01:52:41;;;;;;;18.88;15.27;;;13.80;99.90;;;;;;5045194;28;20045;-65
2022/09/09 01:55:08;;;;;;;20.00;15.43;;;13.80;99.90;;;;;;5045973;28;20110;-66
2022/09/09 01:57:48;;;;;;;18.05;15.30;;;13.80;99.90;;;;;;5045306;28;20132;-65
2022/09/09 02:00:15;;;;;;;18.42;15.20;;;13.80;99.90;;;;;;5045086;28;20033;-66
2022/09/09 02:03:02;;;;;;;18.70;14.20;;;13.70;99.90;;;;;;5045890;28;20123;-66
2022/09/09 02:05:44;;;;;;;18.42;14.77;;;13.80;99.90;;;;;;5041900;28;20047;-65
2022/09/09 02:08:24;;;;;;;17.85;13.77;;;13.80;99.90;;;;;;5034826;28;20125;-65
2022/09/09 02:11:13;;;;;;;17.35;14.32;;;13.80;99.90;;;;;;5025713;28;20049;-66
2022/09/09 02:13:39;;;;;;;16.83;12.95;;;13.80;99.90;;;;;;5024836;28;20038;-65
2022/09/09 02:16:23;;;;;;;14.88;12.38;;;13.90;99.90;;;;;;5025203;28;20045;-66
2022/09/09 02:18:51;;;;;;;16.55;13.45;;;13.90;99.90;;;;;;5025923;28;20451;-66
2022/09/09 02:21:18;;;;;;;14.88;11.70;;;13.80;99.90;;;;;;5025252;28;20037;-65
2022/09/09 02:23:47;;;;;;;15.02;11.35;;;13.90;99.90;;;;;;5025394;28;20412;-65
2022/09/09 02:26:20;;;;;;;12.57;11.27;;;13.80;99.90;;;;;;5025447;28;20128;-65
2022/09/09 02:28:47;;;;;;;12.77;11.15;;;13.90;99.90;;;;;;5023897;28;20634;-66
2022/09/09 02:31:17;;;;;;;15.43;11.07;;;13.90;99.90;;;;;;5025294;28;20057;-65
2022/09/09 02:33:46;;;;;;;16.02;10.93;;;13.90;99.90;;;;;;5025203;28;20446;-66
2022/09/09 02:36:16;;;;;;;15.48;11.55;;;13.90;99.90;;;;;;5024653;28;20037;-66
2022/09/09 02:38:50;;;;;;;15.77;10.88;;;13.90;99.90;;;;;;5025221;28;20056;-65
2022/09/09 02:41:18;;;;;;;16.60;10.95;;;13.60;99.90;;;;;;5024950;28;20045;-65
2022/09/09 02:43:44;;;;;;;14.02;11.05;;;13.90;99.90;;;;;;5024059;28;20142;-66
2022/09/09 02:46:26;;;;;;;14.48;11.52;;;13.90;99.90;;;;;;5024970;28;20111;-65
2022/09/09 02:49:10;;;;;;;13.15;10.68;;;13.90;99.90;;;;;;5025091;28;20053;-65
2022/09/09 02:51:44;;;;;;;13.55;10.32;;;13.90;99.90;;;;;;5024944;28;20049;-65
2022/09/09 02:54:31;;;;;;;18.13;11.40;;;13.90;99.90;;;;;;5024255;28;20050;-65
2022/09/09 02:57:02;;;;;;;15.30;11.48;;;13.80;99.90;;;;;;5024410;28;20087;-66
2022/09/09 02:59:29;;;;;;;13.38;10.48;;;13.90;99.90;;;;;;5023670;28;20435;-65
2022/09/09 03:01:54;;;;;;;13.63;10.80;;;13.80;99.90;;;;;;5024635;28;20086;-65
2022/09/09 03:04:20;;;;;;;14.63;10.88;;;13.80;99.90;;;;;;5024576;28;20426;-65
2022/09/09 03:06:46;;;;;;;13.73;11.13;;;13.80;99.90;;;;;;5034282;28;20618;-66
2022/09/09 03:09:11;;;;;;;16.38;11.05;;;13.90;99.90;;;;;;5024984;28;20118;-65
2022/09/09 03:11:38;;;;;;;15.30;10.65;;;14.00;99.90;;;;;;5024541;28;20095;-65
2022/09/09 03:14:04;;;;;;;17.35;10.30;;;13.90;99.90;;;;;;5024059;28;20445;-65
2022/09/09 03:16:30;;;;;;;13.70;10.10;;;14.00;99.90;;;;;;5023722;28;20046;-65
2022/09/09 03:18:56;;;;;;;13.48;10.27;;;14.00;99.90;;;;;;5024612;28;20461;-65
2022/09/09 03:21:22;;;;;;;13.77;10.05;;;14.00;99.90;;;;;;5024577;28;20391;-66
2022/09/09 03:23:48;;;;;;;14.07;10.60;;;14.00;99.90;;;;;;5024324;28;20049;-65
2022/09/09 03:26:14;;;;;;;13.30;10.32;;;14.00;99.90;;;;;;5023710;28;20057;-66
2022/09/09 03:28:41;;;;;;;14.82;10.00;;;14.10;99.90;;;;;;5023286;28;20047;-65
2022/09/09 03:31:10;;;;;;;16.48;10.63;;;14.10;99.90;;;;;;5024292;28;20045;-66
2022/09/09 03:33:36;;;;;;;14.82;10.05;;;14.00;99.90;;;;;;5023461;28;20361;-65
2022/09/09 03:36:03;;;;;;;14.52;10.77;;;14.10;99.90;;;;;;5023172;28;20484;-66
2022/09/09 03:38:28;;;;;;;12.20;9.80;;;14.10;99.90;;;;;;5023702;28;20132;-65
2022/09/09 03:40:57;;;;;;;12.00;9.48;;;14.10;99.90;;;;;;5022133;28;20129;-66
2022/09/09 03:43:24;;;;;;;13.93;9.68;;;14.10;99.90;;;;;;5023530;28;20042;-64
2022/09/09 03:45:49;;;;;;;14.32;9.23;;;14.20;99.90;;;;;;5022935;28;20050;-65
2022/09/09 03:48:16;;;;;;;11.93;8.57;;;14.20;99.90;;;;;;5023502;28;20396;-65
2022/09/09 03:50:50;;;;;;;12.85;9.10;;;14.20;99.90;;;;;;5023570;28;20049;-65
2022/09/09 03:53:17;;;;;;;12.45;9.60;;;14.20;99.90;;;;;;5039092;28;20385;-65
2022/09/09 03:55:59;;;;;;;14.65;9.77;;;14.20;99.90;;;;;;5023426;28;20049;-65
2022/09/09 03:58:26;;;;;;;13.40;9.60;;;14.20;99.90;;;;;;5022853;28;20128;-65
2022/09/09 04:01:01;;;;;;;16.45;10.75;;;14.10;99.90;;;;;;5024306;28;20156;-65
2022/09/09 04:03:27;;;;;;;14.38;9.63;;;14.10;99.90;;;;;;5023515;28;20045;-65
2022/09/09 04:05:54;;;;;;;14.35;10.57;;;14.10;99.90;;;;;;5026064;28;20061;-65
2022/09/09 04:08:21;;;;;;;15.73;10.30;;;14.10;99.90;;;;;;5032064;28;20061;-65
2022/09/09 04:10:48;;;;;;;17.25;10.18;;;14.10;99.90;;;;;;5023256;28;20045;-65
2022/09/09 04:13:17;;;;;;;14.85;10.60;;;14.10;99.90;;;;;;5022964;28;20044;-65
2022/09/09 04:15:43;;;;;;;14.80;9.20;;;14.10;99.90;;;;;;5023242;28;20107;-65
2022/09/09 04:18:09;;;;;;;15.68;9.30;;;14.10;99.90;;;;;;5022794;28;20136;-65
2022/09/09 04:20:35;;;;;;;12.98;8.30;;;14.20;99.90;;;;;;5023448;28;20141;-65
2022/09/09 04:23:01;;;;;;;16.17;8.02;;;14.20;99.90;;;;;;5023534;28;20041;-65
2022/09/09 04:25:26;;;;;;;12.20;8.27;;;14.20;99.90;;;;;;5022733;28;20060;-65
2022/09/09 04:27:57;;;;;;;12.80;8.73;;;14.20;99.90;;;;;;5022640;28;20084;-65
2022/09/09 04:30:23;;;;;;;14.48;8.15;;;14.30;99.90;;;;;;5023262;28;20056;-65
2022/09/09 04:32:49;;;;;;;11.05;7.95;;;14.20;99.90;;;;;;5022959;28;20535;-65
2022/09/09 04:35:14;;;;;;;12.60;8.40;;;14.30;99.90;;;;;;5023015;28;20088;-65
2022/09/09 04:37:40;;;;;;;11.30;8.65;;;14.20;99.90;;;;;;5023227;28;20099;-65
2022/09/09 04:40:09;;;;;;;12.80;9.20;;;14.20;99.90;;;;;;5023056;28;20472;-65
2022/09/09 04:42:39;;;;;;;12.63;9.63;;;14.20;99.90;;;;;;5022465;28;20042;-65
2022/09/09 04:45:06;;;;;;;14.15;10.88;;;14.20;99.90;;;;;;5023279;28;20053;-66
2022/09/09 04:47:32;;;;;;;12.45;9.68;;;14.20;99.90;;;;;;5038484;28;20571;-65
2022/09/09 04:49:58;;;;;;;17.15;10.30;;;14.20;99.90;;;;;;5022963;28;20061;-66
2022/09/09 04:52:23;;;;;;;12.57;9.85;;;14.10;99.90;;;;;;5023422;28;20500;-65
2022/09/09 04:54:49;;;;;;;14.65;10.50;;;14.20;99.90;;;;;;5023376;28;20037;-66
2022/09/09 04:57:15;;;;;;;16.52;11.35;;;14.10;99.90;;;;;;5022729;28;20092;-65
2022/09/09 04:59:40;;;;;;;13.68;10.55;;;14.20;99.90;;;;;;5022097;28;20042;-66
2022/09/09 05:02:06;;;;;;;14.18;10.88;;;14.20;99.90;;;;;;5023328;28;20491;-66
2022/09/09 05:04:33;;;;;;;13.98;11.57;;;14.20;99.90;;;;;;5021474;28;20116;-66
2022/09/09 05:06:59;;;;;;;14.73;10.77;;;14.20;99.90;;;;;;5034045;28;20053;-65
2022/09/09 05:09:25;;;;;;;15.95;11.00;;;14.20;99.90;;;;;;5021172;28;20119;-65
2022/09/09 05:11:51;;;;;;;12.13;10.45;;;14.10;99.90;;;;;;5023288;28;20038;-66
2022/09/09 05:14:17;;;;;;;13.18;10.70;;;14.10;99.90;;;;;;5022075;28;20044;-65
2022/09/09 05:16:45;;;;;;;15.32;10.93;;;14.10;99.90;;;;;;5022520;28;20335;-66
2022/09/09 05:19:11;;;;;;;13.05;10.80;;;14.10;99.90;;;;;;5023328;28;20045;-66
2022/09/09 05:21:37;;;;;;;16.27;11.60;;;14.10;99.90;;;;;;5022134;28;20058;-65
2022/09/09 05:24:02;;;;;;;13.70;11.13;;;14.10;99.90;;;;;;5021607;28;20046;-65
2022/09/09 05:26:29;;;;;;;13.70;10.20;;;14.10;99.90;;;;;;5024095;28;20069;-66
2022/09/09 05:28:55;;;;;;;11.90;9.38;;;14.00;99.90;;;;;;5040813;28;20046;-65
2022/09/09 05:31:21;;;;;;;13.43;9.65;;;14.10;99.90;;;;;;5026929;28;20107;-66
2022/09/09 05:33:49;;;;;;;10.77;8.65;;;14.00;99.90;;;;;;5025941;28;20134;-65
2022/09/09 05:36:20;;;;;;;11.88;9.35;;;14.10;99.90;;;;;;5026463;28;20096;-65
2022/09/09 05:38:46;;;;;;;14.13;9.32;;;14.00;99.90;;;;;;5026009;28;20356;-66
2022/09/09 05:41:12;;;;;;;13.27;9.05;;;14.00;99.90;;;;;;5025867;28;20033;-66
2022/09/09 05:43:39;;;;;;;11.43;8.70;;;14.00;99.90;;;;;;5025349;28;20038;-65
2022/09/09 05:46:13;;;;;;;11.50;8.73;;;14.00;99.90;;;;;;5025736;28;20033;-65
2022/09/09 05:48:41;;;;;;;14.68;9.52;;;13.90;99.90;;;;;;5026016;28;20684;-65
2022/09/09 05:51:15;;;;;;;12.27;8.45;;;13.50;99.90;;;;;;5026343;28;20511;-65
2022/09/09 05:53:41;;;;;;;12.80;8.70;;;14.00;99.90;;;;;;5024935;28;20378;-66
2022/09/09 05:56:10;;;;;;;11.57;9.13;;;14.00;99.90;;;;;;5025953;28;20251;-65
2022/09/09 05:58:37;;;;;;;12.82;10.13;;;14.00;99.90;;;;;;5024916;28;20049;-66
2022/09/09 06:01:15;;;;;;;11.82;8.98;;;14.00;99.90;;;;;;5026082;28;20044;-65
2022/09/09 06:03:43;;;;;;;13.95;9.68;;;14.00;99.90;;;;;;5025498;28;20049;-66
2022/09/09 06:06:11;;;;;;;13.27;9.85;;;14.00;99.90;;;;;;5029869;28;20045;-66
2022/09/09 06:08:40;;;;;;;12.88;9.13;;;14.00;99.90;;;;;;5031448;28;20069;-66
2022/09/09 06:11:07;;;;;;;13.60;9.52;;;14.00;99.90;;;;;;5025560;28;20040;-67
2022/09/09 06:13:33;;;;;;;12.85;9.88;;;14.00;99.90;;;;;;5024596;28;20045;-67
2022/09/09 06:15:59;;;;;;;11.18;8.77;;;14.00;99.90;;;;;;5025810;28;20156;-66
2022/09/09 06:18:27;;;;;;;13.35;9.00;;;14.00;99.90;;;;;;5025010;28;20207;-67
2022/09/09 06:21:16;;;;;;;12.50;9.45;;;14.00;99.90;;;;;;5023552;28;20057;-66
2022/09/09 06:23:42;;;;;;;13.73;8.90;;;14.10;99.90;;;;;;5025339;28;20045;-66
2022/09/09 06:26:11;;;;;;;11.00;8.85;;;14.00;99.90;;;;;;5025628;28;20695;-66
2022/09/09 06:28:37;;;;;;;11.70;9.07;;;14.10;99.90;;;;;;5024559;28;20186;-66
2022/09/09 06:31:08;;;;;;;12.10;9.27;;;14.10;99.90;;;;;;5025402;28;20041;-65
2022/09/09 06:33:40;;;;;;;12.77;9.50;;;14.10;99.90;;;;;;5024643;28;20038;-66
2022/09/09 06:36:10;;;;;;;12.77;9.25;;;14.10;99.90;;;;;;5023983;28;20041;-65
2022/09/09 06:38:36;;;;;;;12.38;8.80;;;14.10;99.90;;;;;;5024810;28;20041;-66
2022/09/09 06:41:02;;;;;;;12.40;9.70;;;14.10;99.90;;;;;;5024762;28;20045;-66
2022/09/09 06:43:29;;;;;;;13.25;9.27;;;14.20;99.90;;;;;;5024096;28;20139;-66
2022/09/09 06:45:58;;;;;;;13.18;9.63;;;14.20;99.90;;;;;;5025066;28;20040;-66
2022/09/09 06:48:25;;;;;;;12.88;9.70;;;14.20;99.90;;;;;;5024912;28;20121;-65
2022/09/09 06:51:02;;;;;;;11.25;9.27;;;14.20;99.90;;;;;;5025248;28;20048;-66
2022/09/09 06:53:28;;;;;;;11.32;9.02;;;14.30;99.90;;;;;;5024545;28;20104;-65
2022/09/09 06:55:54;;;;;;;10.75;9.52;;;14.30;99.90;;;;;;5024301;28;20523;-66
2022/09/09 06:58:21;;;;;;;11.38;9.82;;;14.40;99.90;;;;;;5024650;28;20045;-66
2022/09/09 07:00:47;;;;;;;11.30;9.40;;;14.40;99.90;;;;;;5024620;28;20045;-65
2022/09/09 07:03:13;;;;;;;14.02;10.88;;;14.40;99.90;;;;;;5025015;28;20060;-66
2022/09/09 07:05:39;;;;;;;12.30;9.98;;;14.60;99.90;;;;;;5026165;28;20060;-67
2022/09/09 07:08:05;;;;;;;12.00;9.82;;;14.70;99.90;;;;;;5033497;28;20511;-66
2022/09/09 07:10:31;;;;;;;10.20;9.00;;;14.80;99.90;;;;;;5024410;28;20053;-66
2022/09/09 07:12:56;;;;;;;10.55;9.40;;;14.80;99.90;;;;;;5023483;28;20034;-66
2022/09/09 07:15:22;;;;;;;9.88;8.88;;;14.90;99.90;;;;;;5023169;28;20045;-65
2022/09/09 07:17:48;;;;;;;11.30;8.75;;;15.10;99.90;;;;;;5024560;28;20119;-66
2022/09/09 07:20:14;;;;;;;9.15;7.50;;;15.50;99.90;;;;;;5024291;28;20121;-66
2022/09/09 07:22:41;;;;;;;9.68;7.45;;;16.00;99.90;;;;;;5022866;28;20121;-66
2022/09/09 07:25:07;;;;;;;8.85;7.65;;;16.10;99.90;;;;;;5023160;28;20056;-65
2022/09/09 07:27:33;;;;;;;11.90;7.25;;;16.20;99.90;;;;;;5023170;28;20048;-65
2022/09/09 07:29:59;;;;;;;10.65;7.65;;;16.00;99.90;;;;;;5024135;28;20045;-65
2022/09/09 07:32:25;;;;;;;8.93;7.63;;;15.90;99.90;;;;;;5024032;28;20116;-65
2022/09/09 07:34:51;;;;;;;8.05;6.38;;;16.10;99.90;;;;;;5024389;28;20081;-65
2022/09/09 07:37:17;;;;;;;7.15;6.22;;;16.00;99.90;;;;;;5023604;28;20504;-65
2022/09/09 07:39:43;;;;;;;10.95;6.75;;;15.80;99.90;;;;;;5024376;28;20049;-65
2022/09/09 07:42:11;;;;;;;10.70;7.32;;;15.70;99.90;;;;;;5023205;28;20041;-64
2022/09/09 07:44:39;;;;;;;8.02;6.20;;;15.90;99.90;;;;;;5023361;28;20045;-65
2022/09/09 07:47:05;;;;;;;8.77;6.55;;;15.80;99.90;;;;;;5042511;28;20084;-65
2022/09/09 07:49:32;;;;;;;8.13;6.32;;;15.90;99.90;;;;;;5040952;28;20411;-65
2022/09/09 07:51:58;;;;;;;9.35;5.88;;;15.80;99.90;;;;;;5022658;28;20050;-65
2022/09/09 07:54:24;;;;;;;8.60;5.95;;;15.80;99.90;;;;;;5021670;28;20412;-65
2022/09/09 07:56:51;;;;;;;7.55;5.85;;;15.90;99.90;;;;;;5023952;28;20048;-65
2022/09/09 07:59:18;;;;;;;9.63;6.10;;;16.00;99.90;;;;;;5023433;28;20037;-65
2022/09/09 08:01:54;;;;;;;7.95;5.65;;;16.20;99.90;;;;;;5023277;28;20121;-65
2022/09/09 08:04:20;;;;;;;8.45;5.10;;;16.40;99.90;;;;;;5024278;28;20049;-68
2022/09/09 08:06:55;;;;;;;6.82;5.47;;;16.50;99.90;;;;;;5012279;28;20049;-67
2022/09/09 08:09:21;;;;;;;;;;;16.60;99.90;;;;;;5024375;28;20053;-66
2022/09/09 08:11:47;;;;;;;9.13;5.85;;;16.40;99.90;;;;;;5023662;28;19917;-66
2022/09/09 08:14:13;;;;;;;6.50;4.72;;;16.60;99.90;;;;;;5023117;28;20171;-66
2022/09/09 08:16:45;;;;;;;8.98;5.63;;;16.70;99.90;;;;;;5022803;28;20076;-66
2022/09/09 08:19:11;;;;;;;7.45;5.20;;;16.70;99.90;;;;;;5023663;28;20068;-66
2022/09/09 08:21:39;;;;;;;6.88;5.07;;;16.60;99.90;;;;;;5023332;28;20052;-66
2022/09/09 08:24:06;;;;;;;7.45;5.10;;;16.50;99.90;;;;;;5022741;28;20056;-66
2022/09/09 08:26:35;;;;;;;7.28;5.25;;;16.60;99.90;;;;;;5034630;28;20037;-66
2022/09/09 08:29:03;;;;;;;8.80;5.10;;;16.60;99.90;;;;;;5042883;28;20045;-66
2022/09/09 08:31:30;;;;;;;8.27;4.95;;;16.90;99.90;;;;;;5042640;28;20827;-58
2022/09/09 08:33:59;;;;;;;7.22;5.00;;;16.90;99.90;;;;;;5042014;28;20045;-66
2022/09/09 08:36:27;;;;;;;8.25;4.90;;;17.10;99.90;;;;;;5043112;28;20041;-65
2022/09/09 08:38:54;;;;;;;6.72;4.25;;;17.00;99.90;;;;;;5039166;28;20128;-65
2022/09/09 08:41:29;;;;;;;7.47;4.78;;;17.10;99.90;;;;;;5042013;28;20037;-65
2022/09/09 08:44:27;;;;;;;7.25;3.95;;;17.20;99.90;;;;;;5042619;28;20049;-65
2022/09/09 08:47:06;;;;;;;6.88;4.57;;;17.20;99.90;;;;;;5002148;28;20057;-65
2022/09/09 08:50:02;;;;;;;7.78;4.32;;;17.10;99.90;;;;;;5042549;28;20406;-65
2022/09/09 08:52:39;;;;;;;6.90;4.80;;;17.10;99.90;;;;;;5042896;28;20094;-65
2022/09/09 08:55:22;;;;;;;6.63;4.47;;;17.00;99.90;;;;;;5042839;28;20436;-65
2022/09/09 08:57:51;;;;;;;6.72;4.80;;;16.90;99.90;;;;;;5042511;28;20060;-65
2022/09/09 09:00:18;;;;;;;7.55;5.30;;;17.10;99.90;;;;;;5043201;28;20045;-63
2022/09/09 09:03:02;;;;;;;7.00;5.40;;;17.10;99.90;;;;;;5046593;28;20053;-65
2022/09/09 09:05:47;;;;;;;6.32;4.18;;;17.10;99.90;;;;;;5043075;28;20067;-65
2022/09/09 09:08:28;;;;;;;;;;;17.10;99.90;;;;;;5036407;28;20056;-66
2022/09/09 09:10:57;;;;;;;6.72;5.18;;;17.20;99.90;;;;;;5027129;28;19921;-65
2022/09/09 09:13:48;;;;;;;7.60;4.85;;;17.30;99.90;;;;;;5026236;28;20041;-65
2022/09/09 09:16:21;;;;;;;7.82;5.30;;;17.30;99.90;;;;;;5026661;28;20514;-65
2022/09/09 09:18:47;;;;;;;6.80;4.78;;;17.50;99.90;;;;;;5025410;28;20045;-65
2022/09/09 09:21:20;;;;;;;7.10;4.40;;;17.50;99.90;;;;;;5026065;28;20522;-66
2022/09/09 09:23:55;;;;;;;9.20;3.80;;;18.00;99.90;;;;;;5026665;28;20076;-66
2022/09/09 09:26:32;;;;;;;6.85;3.78;;;17.90;99.90;;;;;;5026936;28;20183;-65
2022/09/09 09:29:00;;;;;;;6.43;4.05;;;18.10;99.90;;;;;;5031348;28;20045;-65
2022/09/09 09:31:26;;;;;;;7.65;4.53;;;18.10;99.90;;;;;;5036877;28;20110;-65
2022/09/09 09:33:56;;;;;;;7.75;4.20;;;18.10;99.90;;;;;;5035144;28;20053;-65
2022/09/09 09:36:42;;;;;;;6.60;4.03;;;18.20;99.90;;;;;;5046501;28;20056;-65
2022/09/09 09:39:09;;;;;;;8.85;5.03;;;18.40;99.90;;;;;;5046163;28;20094;-65
2022/09/09 09:41:41;;;;;;;7.90;4.65;;;18.70;99.90;;;;;;5045987;28;20116;-65
2022/09/09 09:44:26;;;;;;;7.13;4.88;;;18.10;99.90;;;;;;5044279;28;20505;-65
2022/09/09 09:46:52;;;;;;;7.35;4.68;;;18.10;99.90;;;;;;5046070;28;20069;-65
2022/09/09 09:49:18;;;;;;;5.38;4.05;;;18.20;99.90;;;;;;5046383;28;20758;-65
2022/09/09 09:51:44;;;;;;;7.15;4.05;;;18.20;99.90;;;;;;5045603;28;20335;-65
2022/09/09 09:54:13;;;;;;;7.00;4.10;;;18.50;99.90;;;;;;5045782;28;20132;-65
2022/09/09 09:56:40;;;;;;;8.90;3.85;;;18.60;99.90;;;;;;5045817;28;20072;-65
2022/09/09 09:59:19;;;;;;;6.90;3.60;;;19.10;99.90;;;;;;5045133;28;20043;-66
2022/09/09 10:01:45;;;;;;;6.68;4.03;;;19.20;99.90;;;;;;5034399;28;20048;-65
2022/09/09 10:04:23;;;;;;;9.02;4.53;;;19.40;99.90;;;;;;5041293;28;20081;-66
2022/09/09 10:06:50;;;;;;;6.18;3.20;;;19.00;99.90;;;;;;5039311;28;20060;-66
2022/09/09 10:09:33;;;;;;;8.75;3.70;;;18.80;99.90;;;;;;5025012;28;20424;-65
2022/09/09 10:12:28;;;;;;;9.23;4.22;;;18.70;99.90;;;;;;5024218;28;20046;-66
2022/09/09 10:15:13;;;;;;;8.30;3.92;;;18.50;99.90;;;;;;5023494;28;20085;-65
2022/09/09 10:18:09;;;;;;;10.02;3.67;;;18.60;99.90;;;;;;5045114;28;20079;-65
2022/09/09 10:20:44;;;;;;;6.32;3.05;;;18.50;99.90;;;;;;5038507;28;20045;-66
2022/09/09 10:23:45;;;;;;;7.07;2.38;;;18.60;99.90;;;;;;5044474;28;20534;-65
2022/09/09 10:26:20;;;;;;;8.70;2.67;;;19.00;99.90;;;;;;5043134;28;20044;-65
2022/09/09 10:29:11;;;;;;;6.47;2.17;;;19.10;99.90;;;;;;5043708;28;20128;-65
2022/09/09 10:32:15;;;;;;;9.60;2.35;;;19.10;99.90;;;;;;5039411;28;20383;-66
2022/09/09 10:35:10;;;;;;;5.95;2.08;;;19.50;99.90;;;;;;5035007;28;20519;-66
2022/09/09 10:38:20;;;;;;;6.22;1.92;;;20.00;99.90;;;;;;5028718;28;20092;-66
2022/09/09 10:41:20;;;;;;;6.13;1.98;;;20.10;99.90;;;;;;5021603;28;20057;-66
2022/09/09 10:43:58;;;;;;;7.25;2.35;;;19.80;99.90;;;;;;5023963;28;20057;-66
2022/09/09 10:46:51;;;;;;;10.63;2.25;;;19.60;99.90;;;;;;5024613;28;20041;-66
2022/09/09 10:49:33;;;;;;;8.63;2.80;;;19.70;99.90;;;;;;5024610;28;20068;-66
2022/09/09 10:52:07;;;;;;;4.68;1.98;;;19.50;99.90;;;;;;5024887;28;20099;-66
2022/09/09 10:54:59;;;;;;;7.55;2.50;;;19.50;99.90;;;;;;5024227;28;20033;-67
2022/09/09 10:57:38;;;;;;;5.18;1.65;;;19.80;99.90;;;;;;5020917;28;20192;-67
2022/09/09 11:00:15;;;;;;;9.55;1.88;;;19.80;99.90;;;;;;5024250;28;20103;-66
2022/09/09 11:02:44;;;;;;;6.88;2.08;;;20.20;99.90;;;;;;5022951;28;20052;-66
2022/09/09 11:05:29;;;;;;;6.55;2.08;;;20.30;99.90;;;;;;5025463;28;20037;-66
2022/09/09 11:07:59;;;;;;;7.03;2.00;;;20.20;99.90;;;;;;5033171;28;20336;-66
2022/09/09 11:10:52;;;;;;;6.57;2.03;;;20.30;99.90;;;;;;5024061;28;20245;-66
2022/09/09 11:13:31;;;;;;;8.23;2.22;;;20.10;99.90;;;;;;5024363;28;20049;-64
2022/09/09 11:16:22;;;;;;;7.32;1.90;;;20.70;99.90;;;;;;5031199;28;20412;-66
2022/09/09 11:18:49;;;;;;;8.02;2.10;;;20.50;99.90;;;;;;5043045;28;20495;-67
2022/09/09 11:21:25;;;;;;;3.83;1.25;;;20.50;99.90;;;;;;5043660;28;20301;-67
2022/09/09 11:23:59;;;;;;;5.53;1.80;;;20.60;99.90;;;;;;5043522;28;20045;-67
2022/09/09 11:26:38;;;;;;;5.43;1.63;;;20.80;99.90;;;;;;5043319;28;20057;-68
2022/09/09 11:29:49;;;;;;;3.67;1.35;;;20.70;99.90;;;;;;5044051;28;20053;-67
2022/09/09 11:32:45;;;;;;;6.53;1.60;;;20.50;99.90;;;;;;5044266;28;20204;-67
2022/09/09 11:35:27;;;;;;;8.15;2.03;;;20.90;99.90;;;;;;5043814;28;20048;-67
2022/09/09 11:38:11;;;;;;;8.25;1.73;;;21.10;99.90;;;;;;5043641;28;20048;-67
2022/09/09 11:40:37;;;;;;;5.72;1.85;;;20.80;99.90;;;;;;5043656;28;20075;-67
2022/09/09 11:43:14;;;;;;;6.32;1.63;;;21.00;99.90;;;;;;5042653;28;20048;-67
2022/09/09 11:45:41;;;;;;;6.43;1.67;;;21.50;99.90;;;;;;5043052;28;20463;-67
2022/09/09 11:48:34;;;;;;;4.95;1.40;;;21.40;99.90;;;;;;5043415;28;20053;-67
2022/09/09 11:51:04;;;;;;;5.93;1.52;;;21.20;99.90;;;;;;5043179;28;20507;-67
2022/09/09 11:53:31;;;;;;;6.80;1.52;;;21.00;99.90;;;;;;5043462;28;20041;-67
2022/09/09 11:56:06;;;;;;;4.55;1.27;;;21.00;99.90;;;;;;5043524;28;20041;-67
2022/09/09 11:58:36;;;;;;;;;;;21.20;99.90;;;;;;5043190;28;20458;-67
2022/09/09 12:01:26;;;;;;;4.88;1.73;;;21.40;99.90;;;;;;5043735;28;19921;-67
2022/09/09 12:04:15;;;;;;;5.97;1.60;;;21.40;99.90;;;;;;5043643;28;20445;-67
2022/09/09 12:06:52;;;;;;;6.22;1.65;;;21.20;99.90;;;;;;5040021;28;20059;-67
2022/09/09 12:09:43;;;;;;;7.75;1.60;;;21.10;99.90;;;;;;5024315;28;20045;-67
2022/09/09 12:12:11;;;;;;;5.55;1.15;;;21.20;99.90;;;;;;5022331;28;20048;-67
2022/09/09 12:14:54;;;;;;;4.80;1.70;;;21.50;99.90;;;;;;5022999;28;20042;-67
2022/09/09 12:17:26;;;;;;;5.10;1.48;;;21.70;99.90;;;;;;5023008;28;20060;-67
2022/09/09 12:20:08;;;;;;;4.20;1.20;;;21.30;99.90;;;;;;5023531;28;20080;-67
2022/09/09 12:23:01;;;;;;;4.00;1.30;;;21.30;99.90;;;;;;5022587;28;20702;-67
2022/09/09 12:25:35;;;;;;;5.90;1.67;;;21.20;99.90;;;;;;5023159;28;20041;-66
2022/09/09 12:28:04;;;;;;;4.38;1.27;;;21.00;99.90;;;;;;5022314;28;20060;-66
2022/09/09 12:30:46;;;;;;;5.60;1.50;;;20.90;99.90;;;;;;5023361;28;20037;-66
2022/09/09 12:33:16;;;;;;;7.25;1.80;;;20.80;99.90;;;;;;5023034;28;20125;-66
2022/09/09 12:35:44;;;;;;;7.25;1.83;;;20.70;99.90;;;;;;5025334;28;20684;-66
2022/09/09 12:38:28;;;;;;;5.80;1.80;;;20.70;99.90;;;;;;5027461;28;20049;-66
2022/09/09 12:40:58;;;;;;;4.57;1.60;;;20.60;99.90;;;;;;5027393;28;20052;-66
2022/09/09 12:43:25;;;;;;;4.90;1.73;;;20.60;99.90;;;;;;5026034;28;20041;-66
2022/09/09 12:45:57;;;;;;;5.07;1.35;;;20.70;99.90;;;;;;5027009;28;20049;-66
2022/09/09 12:48:35;;;;;;;4.80;1.23;;;20.70;99.90;;;;;;5026749;28;20112;-65
2022/09/09 12:51:01;;;;;;;5.47;1.10;;;20.20;99.90;;;;;;5027319;28;20715;-67
2022/09/09 12:53:34;;;;;;;5.38;1.33;;;20.80;99.90;;;;;;5026399;28;20201;-67
2022/09/09 12:56:04;;;;;;;8.70;1.45;;;20.90;99.90;;;;;;5026963;28;20415;-67
2022/09/09 12:58:34;;;;;;;3.17;1.20;;;21.10;99.90;;;;;;5025925;28;20049;-67
2022/09/09 13:01:04;;;;;;;3.67;1.15;;;20.90;99.90;;;;;;5026882;28;20053;-66
2022/09/09 13:03:30;;;;;;;5.97;1.77;;;21.00;99.90;;;;;;5023534;28;20049;-66
2022/09/09 13:06:09;;;;;;;4.75;1.45;;;21.30;99.90;;;;;;5032124;28;20488;-67